createdAt,value
2018-01-18T00:00:31.180Z,3.96
2018-01-18T00:02:32.671Z,3.96
2018-01-18T00:04:34.154Z,3.89
2018-01-18T00:06:35.642Z,4.01
2018-01-18T00:08:37.561Z,3.89
2018-01-18T00:10:39.007Z,3.97
2018-01-18T00:12:40.882Z,4.00
2018-01-18T00:14:42.809Z,3.98
2018-01-18T00:16:44.732Z,3.97
2018-01-18T00:18:46.246Z,3.96
2018-01-18T00:20:47.709Z,3.96
2018-01-18T00:23:32.280Z,3.89
2018-01-18T00:25:33.830Z,3.88
2018-01-18T00:27:35.238Z,3.85
2018-01-18T00:29:36.639Z,3.80
2018-01-18T00:31:38.044Z,3.86
2018-01-18T00:33:39.753Z,3.90
2018-01-18T00:35:41.153Z,3.78
2018-01-18T00:37:42.928Z,3.92
2018-01-18T00:39:44.448Z,3.94
2018-01-18T00:42:26.997Z,4.01
2018-01-18T00:44:28.416Z,4.00
2018-01-18T00:46:29.803Z,3.97
2018-01-18T00:48:31.563Z,3.97
2018-01-18T00:50:34.773Z,4.00
2018-01-18T00:52:36.973Z,4.01
2018-01-18T00:54:38.426Z,4.00
2018-01-18T00:56:40.526Z,4.01
2018-01-18T00:58:42.451Z,3.97
2018-01-18T01:00:44.693Z,4.06
2018-01-18T01:03:30.243Z,4.14
2018-01-18T01:05:31.446Z,4.06
2018-01-18T01:07:32.966Z,4.04
2018-01-18T01:09:34.365Z,4.07
2018-01-18T01:11:35.820Z,3.97
2018-01-18T01:13:37.676Z,4.04
2018-01-18T01:15:39.188Z,4.06
2018-01-18T01:17:40.711Z,4.10
2018-01-18T01:19:42.823Z,4.10
2018-01-18T01:21:44.346Z,4.07
2018-01-18T01:23:45.873Z,4.12
2018-01-18T01:25:47.678Z,4.10
2018-01-18T01:27:49.140Z,4.04
2018-01-18T01:29:50.579Z,4.08
2018-01-18T01:31:52.058Z,4.01
2018-01-18T01:33:53.552Z,4.01
2018-01-18T01:35:55.188Z,3.97
2018-01-18T01:37:56.958Z,3.97
2018-01-18T01:39:58.500Z,4.06
2018-01-18T01:42:00.205Z,4.01
2018-01-18T01:44:02.374Z,4.01
2018-01-18T01:46:04.038Z,4.01
2018-01-18T01:48:05.540Z,4.07
2018-01-18T01:50:07.307Z,3.98
2018-01-18T01:52:08.831Z,4.03
2018-01-18T01:54:10.342Z,4.06
2018-01-18T01:56:12.408Z,4.08
2018-01-18T01:58:14.761Z,4.06
2018-01-18T02:00:16.312Z,4.04
2018-01-18T02:02:18.484Z,4.14
2018-01-18T02:04:19.942Z,4.16
2018-01-18T02:06:21.570Z,4.21
2018-01-18T02:08:23.705Z,4.10
2018-01-18T02:10:25.260Z,4.14
2018-01-18T02:12:26.779Z,4.15
2018-01-18T02:14:29.157Z,4.14
2018-01-18T02:16:31.478Z,4.21
2018-01-18T02:18:33.029Z,4.15
2018-01-18T02:20:34.849Z,4.16
2018-01-18T02:23:21.400Z,4.18
2018-01-18T02:25:22.645Z,4.12
2018-01-18T02:27:24.990Z,4.18
2018-01-18T02:29:26.377Z,4.21
2018-01-18T02:31:27.766Z,4.24
2018-01-18T02:33:29.171Z,4.24
2018-01-18T02:35:30.574Z,4.22
2018-01-18T02:37:31.973Z,4.26
2018-01-18T02:39:34.165Z,4.22
2018-01-18T02:41:36.169Z,4.32
2018-01-18T02:43:38.072Z,4.37
2018-01-18T02:45:39.676Z,4.37
2018-01-18T02:47:41.470Z,4.36
2018-01-18T02:49:43.665Z,4.47
2018-01-18T02:51:45.665Z,4.46
2018-01-18T02:53:47.118Z,4.46
2018-01-18T02:55:48.842Z,4.40
2018-01-18T02:57:50.283Z,4.39
2018-01-18T02:59:51.821Z,4.44
2018-01-18T03:02:38.019Z,4.37
2018-01-18T03:04:39.696Z,4.39
2018-01-18T03:06:41.112Z,4.34
2018-01-18T03:08:43.307Z,4.40
2018-01-18T03:10:44.736Z,4.40
2018-01-18T03:12:46.214Z,4.34
2018-01-18T03:14:48.383Z,4.36
2018-01-18T03:16:49.894Z,4.36
2018-01-18T03:18:51.681Z,4.40
2018-01-18T03:20:53.202Z,4.43
2018-01-18T03:22:54.677Z,4.39
2018-01-18T03:24:56.078Z,4.39
2018-01-18T03:26:57.558Z,4.43
2018-01-18T03:28:59.322Z,4.44
2018-01-18T03:31:00.867Z,4.50
2018-01-18T03:33:02.345Z,4.39
2018-01-18T03:35:03.834Z,4.37
2018-01-18T03:37:05.306Z,4.51
2018-01-18T03:39:07.500Z,4.52
2018-01-18T03:41:09.049Z,4.51
2018-01-18T03:43:10.776Z,4.46
2018-01-18T03:45:12.274Z,4.54
2018-01-18T03:47:13.747Z,4.42
2018-01-18T03:49:15.205Z,4.44
2018-01-18T03:51:17.025Z,4.39
2018-01-18T03:53:18.513Z,4.37
2018-01-18T03:55:20.716Z,4.40
2018-01-18T03:57:23.558Z,4.33
2018-01-18T03:59:25.089Z,4.40
2018-01-18T04:01:26.667Z,4.43
2018-01-18T04:03:28.742Z,4.36
2018-01-18T04:05:30.809Z,4.34
2018-01-18T04:07:32.633Z,4.24
2018-01-18T04:09:34.090Z,4.25
2018-01-18T04:11:35.558Z,4.19
2018-01-18T04:13:36.968Z,4.21
2018-01-18T04:15:38.465Z,4.16
2018-01-18T04:17:40.602Z,4.10
2018-01-18T04:19:42.093Z,4.16
2018-01-18T04:21:43.809Z,4.12
2018-01-18T04:23:45.312Z,4.19
2018-01-18T04:25:46.941Z,4.18
2018-01-18T04:27:48.429Z,4.16
2018-01-18T04:29:49.910Z,4.03
2018-01-18T04:31:51.316Z,4.04
2018-01-18T04:33:52.724Z,4.00
2018-01-18T04:35:54.424Z,3.96
2018-01-18T04:37:55.833Z,3.92
2018-01-18T04:39:57.773Z,3.96
2018-01-18T04:42:39.377Z,3.86
2018-01-18T04:44:42.673Z,3.83
2018-01-18T04:46:44.042Z,3.76
2018-01-18T04:48:45.451Z,3.75
2018-01-18T04:50:46.899Z,3.85
2018-01-18T04:52:48.613Z,3.75
2018-01-18T04:54:50.516Z,3.65
2018-01-18T04:56:52.035Z,3.67
2018-01-18T04:58:53.426Z,3.68
2018-01-18T05:00:55.483Z,3.62
2018-01-18T05:02:57.510Z,3.70
2018-01-18T05:04:58.997Z,3.60
2018-01-18T05:07:00.598Z,3.50
2018-01-18T05:09:02.682Z,3.60
2018-01-18T05:11:04.652Z,3.68
2018-01-18T05:13:06.219Z,3.62
2018-01-18T05:15:08.219Z,3.57
2018-01-18T05:17:10.205Z,3.43
2018-01-18T05:19:12.079Z,3.49
2018-01-18T05:21:14.036Z,3.40
2018-01-18T05:23:15.784Z,3.42
2018-01-18T05:25:17.760Z,3.36
2018-01-18T05:27:19.274Z,3.42
2018-01-18T05:29:20.681Z,3.33
2018-01-18T05:31:22.172Z,3.42
2018-01-18T05:33:24.046Z,3.27
2018-01-18T05:35:25.574Z,3.27
2018-01-18T05:37:27.130Z,3.24
2018-01-18T05:39:29.215Z,3.25
2018-01-18T05:41:31.161Z,3.24
2018-01-18T05:43:32.695Z,3.24
2018-01-18T05:45:34.153Z,3.25
2018-01-18T05:47:36.199Z,3.36
2018-01-18T05:49:38.398Z,3.39
2018-01-18T05:51:39.775Z,3.34
2018-01-18T05:53:41.177Z,3.34
2018-01-18T05:55:42.613Z,3.43
2018-01-18T05:57:44.030Z,3.33
2018-01-18T05:59:45.600Z,3.30
2018-01-18T06:01:47.597Z,3.21
2018-01-18T06:03:49.340Z,3.31
2018-01-18T06:05:50.826Z,3.27
2018-01-18T06:07:52.677Z,3.23
2018-01-18T06:09:54.181Z,3.24
2018-01-18T06:11:55.671Z,3.30
2018-01-18T06:13:57.154Z,3.31
2018-01-18T06:15:58.639Z,3.34
2018-01-18T06:18:00.088Z,3.36
2018-01-18T06:20:01.565Z,3.36
2018-01-18T06:22:03.710Z,3.39
2018-01-18T06:24:05.151Z,3.54
2018-01-18T06:26:06.606Z,3.58
2018-01-18T06:28:08.908Z,3.61
2018-01-18T06:30:10.431Z,3.62
2018-01-18T06:32:12.765Z,3.78
2018-01-18T06:34:14.866Z,3.83
2018-01-18T06:36:17.021Z,3.97
2018-01-18T06:38:19.150Z,4.15
2018-01-18T06:40:21.026Z,4.28
2018-01-18T06:42:22.613Z,4.36
2018-01-18T06:44:24.098Z,4.32
2018-01-18T06:46:25.577Z,4.43
2018-01-18T06:48:27.177Z,4.55
2018-01-18T06:50:28.652Z,4.46
2018-01-18T06:52:30.187Z,4.59
2018-01-18T06:54:31.612Z,4.69
2018-01-18T06:56:33.069Z,4.80
2018-01-18T06:58:34.552Z,4.86
2018-01-18T07:00:36.029Z,4.91
2018-01-18T07:02:37.566Z,4.92
2018-01-18T07:04:39.098Z,4.99
2018-01-18T07:06:40.600Z,5.13
2018-01-18T07:08:42.120Z,5.16
2018-01-18T07:10:43.643Z,5.31
2018-01-18T07:12:45.793Z,5.35
2018-01-18T07:14:47.313Z,5.40
2018-01-18T07:16:48.790Z,5.57
2018-01-18T07:18:50.282Z,5.59
2018-01-18T07:20:51.820Z,5.81
2018-01-18T07:23:33.581Z,5.92
2018-01-18T07:25:35.117Z,5.83
2018-01-18T07:27:38.226Z,5.98
2018-01-18T07:29:40.560Z,6.00
2018-01-18T07:31:41.900Z,6.07
2018-01-18T07:33:43.565Z,6.09
2018-01-18T07:35:45.010Z,6.29
2018-01-18T07:37:46.607Z,6.30
2018-01-18T07:39:48.199Z,6.51
2018-01-18T07:41:49.828Z,6.61
2018-01-18T07:43:51.318Z,6.56
2018-01-18T07:45:52.836Z,6.66
2018-01-18T07:47:54.505Z,6.73
2018-01-18T07:49:55.979Z,6.80
2018-01-18T07:51:57.516Z,6.95
2018-01-18T07:53:59.394Z,6.91
2018-01-18T07:56:00.918Z,7.01
2018-01-18T07:58:02.392Z,7.02
2018-01-18T08:00:03.969Z,7.09
2018-01-18T08:02:05.545Z,7.01
2018-01-18T08:04:07.889Z,7.08
2018-01-18T08:06:10.171Z,7.27
2018-01-18T08:08:11.770Z,7.26
2018-01-18T08:10:13.731Z,7.24
2018-01-18T08:12:16.251Z,7.24
2018-01-18T08:14:18.613Z,7.27
2018-01-18T08:16:20.304Z,7.37
2018-01-18T08:18:22.765Z,7.41
2018-01-18T08:20:24.810Z,7.67
2018-01-18T08:22:26.428Z,7.84
2018-01-18T08:24:28.659Z,7.99
2018-01-18T08:26:30.802Z,8.02
2018-01-18T08:28:32.448Z,8.08
2018-01-18T08:30:34.086Z,7.93
2018-01-18T08:32:35.781Z,7.96
2018-01-18T08:34:37.554Z,7.99
2018-01-18T08:36:39.684Z,7.97
2018-01-18T08:38:41.451Z,7.90
2018-01-18T08:40:43.163Z,8.08
2018-01-18T08:42:44.984Z,8.03
2018-01-18T08:44:46.703Z,8.00
2018-01-18T08:46:48.385Z,8.00
2018-01-18T08:48:49.911Z,8.21
2018-01-18T08:50:51.419Z,8.11
2018-01-18T08:52:52.959Z,8.07
2018-01-18T08:54:54.768Z,8.11
2018-01-18T08:56:56.650Z,8.22
2018-01-18T08:58:58.330Z,8.30
2018-01-18T09:01:00.012Z,8.48
2018-01-18T09:03:01.596Z,8.47
2018-01-18T09:05:03.706Z,8.53
2018-01-18T09:07:05.515Z,8.62
2018-01-18T09:09:07.942Z,8.55
2018-01-18T09:11:09.654Z,8.62
2018-01-18T09:13:11.242Z,8.58
2018-01-18T09:15:13.506Z,8.47
2018-01-18T09:17:15.174Z,8.25
2018-01-18T09:19:16.837Z,7.96
2018-01-18T09:21:18.947Z,7.78
2018-01-18T09:23:20.540Z,7.78
2018-01-18T09:25:22.082Z,7.67
2018-01-18T09:27:23.616Z,7.78
2018-01-18T09:29:25.129Z,7.77
2018-01-18T09:31:26.630Z,7.87
2018-01-18T09:33:28.310Z,7.93
2018-01-18T09:35:30.174Z,7.99
2018-01-18T09:37:32.006Z,7.90
2018-01-18T09:39:33.855Z,8.04
2018-01-18T09:41:35.653Z,7.99
2018-01-18T09:43:37.380Z,7.85
2018-01-18T09:45:39.240Z,7.87
2018-01-18T09:47:41.029Z,7.84
2018-01-18T09:49:42.792Z,7.72
2018-01-18T09:51:44.564Z,7.72
2018-01-18T09:53:46.067Z,7.67
2018-01-18T09:55:47.541Z,7.60
2018-01-18T09:57:49.033Z,7.60
2018-01-18T09:59:50.539Z,7.56
2018-01-18T10:01:52.128Z,7.58
2018-01-18T10:03:54.046Z,7.53
2018-01-18T10:05:55.665Z,7.42
2018-01-18T10:07:57.563Z,7.42
2018-01-18T10:09:59.436Z,7.34
2018-01-18T10:12:01.194Z,7.29
2018-01-18T10:14:02.645Z,7.20
2018-01-18T10:16:04.164Z,7.26
2018-01-18T10:18:05.640Z,7.09
2018-01-18T10:20:07.533Z,6.87
2018-01-18T10:22:09.230Z,6.76
2018-01-18T10:24:11.053Z,6.65
2018-01-18T10:26:12.835Z,6.53
2018-01-18T10:28:14.613Z,6.44
2018-01-18T10:30:16.178Z,6.26
2018-01-18T10:32:17.862Z,6.25
2018-01-18T10:34:19.509Z,6.09
2018-01-18T10:36:21.131Z,6.10
2018-01-18T10:38:22.905Z,6.07
2018-01-18T10:40:24.700Z,6.10
2018-01-18T10:42:26.396Z,6.00
2018-01-18T10:44:28.096Z,6.06
2018-01-18T10:46:29.896Z,5.96
2018-01-18T10:48:31.613Z,5.95
2018-01-18T10:50:33.359Z,5.95
2018-01-18T10:52:35.107Z,5.85
2018-01-18T10:54:36.642Z,5.82
2018-01-18T10:56:38.474Z,5.75
2018-01-18T10:58:40.341Z,5.64
2018-01-18T11:00:42.137Z,5.68
2018-01-18T11:02:43.883Z,5.63
2018-01-18T11:04:45.630Z,5.67
2018-01-18T11:06:47.357Z,5.66
2018-01-18T11:08:49.162Z,5.67
2018-01-18T11:10:50.934Z,5.68
2018-01-18T11:12:52.753Z,5.73
2018-01-18T11:14:54.382Z,5.77
2018-01-18T11:16:55.869Z,5.73
2018-01-18T11:18:57.724Z,5.85
2018-01-18T11:20:59.448Z,5.95
2018-01-18T11:23:00.910Z,6.09
2018-01-18T11:25:02.466Z,6.13
2018-01-18T11:27:04.172Z,6.09
2018-01-18T11:29:05.759Z,6.14
2018-01-18T11:31:07.258Z,6.10
2018-01-18T11:33:08.776Z,6.29
2018-01-18T11:35:10.249Z,6.33
2018-01-18T11:37:11.746Z,6.28
2018-01-18T11:39:13.276Z,6.35
2018-01-18T11:41:14.762Z,6.33
2018-01-18T11:43:16.241Z,6.33
2018-01-18T11:45:17.719Z,6.36
2018-01-18T11:47:19.152Z,6.38
2018-01-18T11:49:20.626Z,6.25
2018-01-18T11:51:22.280Z,6.48
2018-01-18T11:53:23.935Z,6.44
2018-01-18T11:55:25.421Z,6.32
2018-01-18T11:57:26.898Z,6.43
2018-01-18T11:59:28.418Z,6.26
2018-01-18T12:01:29.884Z,6.35
2018-01-18T12:03:31.353Z,6.33
2018-01-18T12:05:32.818Z,6.46
2018-01-18T12:07:34.297Z,6.50
2018-01-18T12:09:35.785Z,6.43
2018-01-18T12:11:37.275Z,6.56
2018-01-18T12:13:38.721Z,6.59
2018-01-18T12:15:40.205Z,6.61
2018-01-18T12:17:41.855Z,6.61
2018-01-18T12:19:43.358Z,6.66
2018-01-18T12:21:45.046Z,6.62
2018-01-18T12:23:46.545Z,6.65
2018-01-18T12:25:48.085Z,6.71
2018-01-18T12:27:49.672Z,6.61
2018-01-18T12:29:51.324Z,6.62
2018-01-18T12:31:52.876Z,6.63
2018-01-18T12:33:54.387Z,6.48
2018-01-18T12:35:55.969Z,6.54
2018-01-18T12:37:57.477Z,6.61
2018-01-18T12:39:58.974Z,6.76
2018-01-18T12:42:00.520Z,6.87
2018-01-18T12:44:02.074Z,6.83
2018-01-18T12:46:03.618Z,6.91
2018-01-18T12:48:05.098Z,6.90
2018-01-18T12:50:06.612Z,6.91
2018-01-18T12:52:08.090Z,6.91
2018-01-18T12:54:09.644Z,6.89
2018-01-18T12:56:11.176Z,6.94
2018-01-18T12:58:12.810Z,6.89
2018-01-18T13:00:14.570Z,6.89
2018-01-18T13:02:16.744Z,6.95
2018-01-18T13:04:18.282Z,6.89
2018-01-18T13:06:19.839Z,7.17
2018-01-18T13:08:21.538Z,7.01
2018-01-18T13:10:23.358Z,7.05
2018-01-18T13:12:24.800Z,7.07
2018-01-18T13:14:26.489Z,6.95
2018-01-18T13:16:27.936Z,7.07
2018-01-18T13:18:29.404Z,6.90
2018-01-18T13:20:30.863Z,7.04
2018-01-18T13:22:32.479Z,7.13
2018-01-18T13:24:34.002Z,7.16
2018-01-18T13:26:35.556Z,7.31
2018-01-18T13:28:37.045Z,7.37
2018-01-18T13:30:38.546Z,7.27
2018-01-18T13:32:40.091Z,7.24
2018-01-18T13:34:41.569Z,7.15
2018-01-18T13:36:43.033Z,7.17
2018-01-18T13:38:44.567Z,7.22
2018-01-18T13:40:46.048Z,7.27
2018-01-18T13:42:47.552Z,7.27
2018-01-18T13:44:49.017Z,7.29
2018-01-18T13:46:50.535Z,7.19
2018-01-18T13:48:52.014Z,7.16
2018-01-18T13:50:53.465Z,7.15
2018-01-18T13:52:55.063Z,7.15
2018-01-18T13:54:56.508Z,7.26
2018-01-18T13:56:57.949Z,7.15
2018-01-18T13:58:59.432Z,7.16
2018-01-18T14:01:00.930Z,6.91
2018-01-18T14:03:02.450Z,6.89
2018-01-18T14:05:04.124Z,6.90
2018-01-18T14:07:05.836Z,6.59
2018-01-18T14:09:07.458Z,6.48
2018-01-18T14:11:09.391Z,6.62
2018-01-18T14:13:10.945Z,6.63
2018-01-18T14:15:12.637Z,6.71
2018-01-18T14:17:14.135Z,6.71
2018-01-18T14:19:15.689Z,6.90
2018-01-18T14:21:17.366Z,6.89
2018-01-18T14:23:18.995Z,6.76
2018-01-18T14:25:20.760Z,6.84
2018-01-18T14:27:22.582Z,6.90
2018-01-18T14:29:24.454Z,6.84
2018-01-18T14:31:26.285Z,6.89
2018-01-18T14:33:28.209Z,6.95
2018-01-18T14:35:30.043Z,6.95
2018-01-18T14:37:31.643Z,6.89
2018-01-18T14:39:33.263Z,6.89
2018-01-18T14:41:34.897Z,6.61
2018-01-18T14:44:17.303Z,6.56
2018-01-18T14:46:18.730Z,6.44
2018-01-18T14:48:20.161Z,6.58
2018-01-18T14:50:21.624Z,6.65
2018-01-18T14:52:23.594Z,6.66
2018-01-18T14:54:25.249Z,6.80
2018-01-18T14:56:27.178Z,6.66
2018-01-18T14:58:28.747Z,6.66
2018-01-18T15:00:30.452Z,6.62
2018-01-18T15:02:31.858Z,6.59
2018-01-18T15:04:33.259Z,6.71
2018-01-18T15:06:34.738Z,6.83
2018-01-18T15:08:36.398Z,6.76
2018-01-18T15:10:38.221Z,6.63
2018-01-18T15:12:40.232Z,6.56
2018-01-18T15:14:42.089Z,6.46
2018-01-18T15:16:43.720Z,6.53
2018-01-18T15:18:45.491Z,6.50
2018-01-18T15:20:47.012Z,6.41
2018-01-18T15:22:48.860Z,6.28
2018-01-18T15:24:50.611Z,6.06
2018-01-18T15:26:52.249Z,6.00
2018-01-18T15:28:54.199Z,5.91
2018-01-18T15:30:56.452Z,5.67
2018-01-18T15:32:58.120Z,5.68
2018-01-18T15:34:59.787Z,5.55
2018-01-18T15:37:01.380Z,5.57
2018-01-18T15:39:02.942Z,5.55
2018-01-18T15:41:04.471Z,5.53
2018-01-18T15:43:05.985Z,5.55
2018-01-18T15:45:07.519Z,5.56
2018-01-18T15:47:09.064Z,5.67
2018-01-18T15:49:10.791Z,5.60
2018-01-18T15:51:12.335Z,5.74
2018-01-18T15:53:13.860Z,5.74
2018-01-18T15:55:15.456Z,5.78
2018-01-18T15:57:16.989Z,5.75
2018-01-18T15:59:18.676Z,5.83
2018-01-18T16:01:20.288Z,5.83
2018-01-18T16:03:21.794Z,5.85
2018-01-18T16:05:23.310Z,5.73
2018-01-18T16:07:25.091Z,5.77
2018-01-18T16:09:26.573Z,5.70
2018-01-18T16:11:28.201Z,5.67
2018-01-18T16:13:29.756Z,5.88
2018-01-18T16:15:31.344Z,5.83
2018-01-18T16:17:32.871Z,5.74
2018-01-18T16:19:34.516Z,5.67
2018-01-18T16:21:36.035Z,5.67
2018-01-18T16:23:37.470Z,5.71
2018-01-18T16:25:38.924Z,5.59
2018-01-18T16:27:40.440Z,5.57
2018-01-18T16:29:42.787Z,5.49
2018-01-18T16:31:45.196Z,5.43
2018-01-18T16:33:46.806Z,5.32
2018-01-18T16:35:48.748Z,5.43
2018-01-18T16:37:50.368Z,5.32
2018-01-18T16:39:52.041Z,5.28
2018-01-18T16:41:53.759Z,5.25
2018-01-18T16:43:55.209Z,5.32
2018-01-18T16:45:56.725Z,5.28
2018-01-18T16:47:58.369Z,5.23
2018-01-18T16:49:59.932Z,5.09
2018-01-18T16:52:01.576Z,5.17
2018-01-18T16:54:03.052Z,5.14
2018-01-18T16:56:04.540Z,5.30
2018-01-18T16:58:06.065Z,5.31
2018-01-18T17:00:08.533Z,5.20
2018-01-18T17:02:10.608Z,5.27
2018-01-18T17:04:12.113Z,5.30
2018-01-18T17:06:13.577Z,5.35
2018-01-18T17:08:15.257Z,5.23
2018-01-18T17:10:16.994Z,5.22
2018-01-18T17:12:18.467Z,5.22
2018-01-18T17:14:20.146Z,5.16
2018-01-18T17:16:21.826Z,5.10
2018-01-18T17:18:24.639Z,5.13
2018-01-18T17:20:26.534Z,5.09
2018-01-18T17:22:28.113Z,5.16
2018-01-18T17:24:29.582Z,5.04
2018-01-18T17:26:31.609Z,4.98
2018-01-18T17:28:33.252Z,4.89
2018-01-18T17:30:35.226Z,4.95
2018-01-18T17:32:36.940Z,5.05
2018-01-18T17:34:38.870Z,4.98
2018-01-18T17:36:40.790Z,5.12
2018-01-18T17:38:42.640Z,4.95
2018-01-18T17:40:44.338Z,4.92
2018-01-18T17:42:46.187Z,4.95
2018-01-18T17:44:47.694Z,4.76
2018-01-18T17:46:49.205Z,4.94
2018-01-18T17:48:50.697Z,4.77
2018-01-18T17:50:52.360Z,4.80
2018-01-18T17:52:53.986Z,4.89
2018-01-18T17:54:55.742Z,4.89
2018-01-18T17:56:57.267Z,4.86
2018-01-18T17:58:58.801Z,4.80
2018-01-18T18:01:00.522Z,4.70
2018-01-18T18:03:02.261Z,4.75
2018-01-18T18:05:03.691Z,4.59
2018-01-18T18:07:05.332Z,4.46
2018-01-18T18:09:06.842Z,4.47
2018-01-18T18:11:08.739Z,4.50
2018-01-18T18:13:10.243Z,4.47
2018-01-18T18:15:11.765Z,4.43
2018-01-18T18:17:13.254Z,4.44
2018-01-18T18:19:14.737Z,4.54
2018-01-18T18:21:16.478Z,4.51
2018-01-18T18:23:18.122Z,4.59
2018-01-18T18:25:19.929Z,4.36
2018-01-18T18:27:21.385Z,4.42
2018-01-18T18:29:22.878Z,4.42
2018-01-18T18:31:24.378Z,4.36
2018-01-18T18:33:26.164Z,4.36
2018-01-18T18:35:27.800Z,4.37
2018-01-18T18:37:29.415Z,4.47
2018-01-18T18:39:31.200Z,4.43
2018-01-18T18:41:33.037Z,4.39
2018-01-18T18:43:34.776Z,4.34
2018-01-18T18:45:36.272Z,4.26
2018-01-18T18:47:37.788Z,4.32
2018-01-18T18:49:39.307Z,4.22
2018-01-18T18:51:41.007Z,4.16
2018-01-18T18:53:42.776Z,4.18
2018-01-18T18:55:44.618Z,4.19
2018-01-18T18:57:46.212Z,4.21
2018-01-18T18:59:47.954Z,4.19
2018-01-18T19:01:49.502Z,4.19
2018-01-18T19:03:50.983Z,4.24
2018-01-18T19:05:52.514Z,4.22
2018-01-18T19:07:54.026Z,4.26
2018-01-18T19:09:55.744Z,4.36
2018-01-18T19:11:57.829Z,4.29
2018-01-18T19:13:59.705Z,4.19
2018-01-18T19:16:42.595Z,4.25
2018-01-18T19:18:43.967Z,3.94
2018-01-18T19:20:45.371Z,3.96
2018-01-18T19:22:46.773Z,3.85
2018-01-18T19:24:48.866Z,3.83
2018-01-18T19:26:50.422Z,3.79
2018-01-18T19:28:52.117Z,3.78
2018-01-18T19:30:53.856Z,3.67
2018-01-18T19:32:55.773Z,3.79
2018-01-18T19:35:39.683Z,3.90
2018-01-18T19:37:41.222Z,3.90
2018-01-18T19:39:42.595Z,3.97
2018-01-18T19:41:44.000Z,3.90
2018-01-18T19:43:45.403Z,3.82
2018-01-18T19:45:46.804Z,3.86
2018-01-18T19:47:48.213Z,3.92
2018-01-18T19:49:49.720Z,3.92
2018-01-18T19:51:51.361Z,4.06
2018-01-18T19:54:33.787Z,3.97
2018-01-18T19:56:35.192Z,3.90
2018-01-18T19:58:36.616Z,3.82
2018-01-18T20:00:38.007Z,3.76
2018-01-18T20:02:39.438Z,3.62
2018-01-18T20:04:40.937Z,3.65
2018-01-18T20:06:42.468Z,3.61
2018-01-18T20:08:44.189Z,3.75
2018-01-18T20:10:46.002Z,3.86
2018-01-18T20:12:48.607Z,3.85
2018-01-18T20:14:50.361Z,3.62
2018-01-18T20:16:52.173Z,3.76
2018-01-18T20:18:53.921Z,3.70
2018-01-18T20:20:55.440Z,3.67
2018-01-18T20:22:57.075Z,3.62
2018-01-18T20:24:58.831Z,3.61
2018-01-18T20:27:00.403Z,3.54
2018-01-18T20:29:02.566Z,3.54
2018-01-18T20:31:04.073Z,3.46
2018-01-18T20:33:46.976Z,3.50
2018-01-18T20:35:48.352Z,3.53
2018-01-18T20:37:51.539Z,3.50
2018-01-18T20:39:52.902Z,3.47
2018-01-18T20:41:54.448Z,3.47
2018-01-18T20:43:55.922Z,3.52
2018-01-18T20:46:38.308Z,3.46
2018-01-18T20:48:39.882Z,3.46
2018-01-18T20:50:42.240Z,3.31
2018-01-18T20:53:24.883Z,3.25
2018-01-18T20:55:26.276Z,3.31
2018-01-18T20:57:27.677Z,3.24
2018-01-18T20:59:30.797Z,3.24
2018-01-18T21:01:32.902Z,3.27
2018-01-18T21:03:35.067Z,3.30
2018-01-18T21:05:36.613Z,3.40
2018-01-18T21:07:38.366Z,3.34
2018-01-18T21:09:40.089Z,3.25
2018-01-18T21:12:23.612Z,3.36
2018-01-18T21:14:25.448Z,3.36
2018-01-18T21:16:27.888Z,3.49
2018-01-18T21:18:29.301Z,3.64
2018-01-18T21:20:30.691Z,3.76
2018-01-18T21:23:14.315Z,3.71
2018-01-18T21:25:15.712Z,3.62
2018-01-18T21:27:18.064Z,3.67
2018-01-18T21:29:19.885Z,3.62
2018-01-18T21:32:02.913Z,3.53
2018-01-18T21:34:04.544Z,3.60
2018-01-18T21:36:06.990Z,3.54
2018-01-18T21:38:08.154Z,3.58
2018-01-18T21:40:09.588Z,3.52
2018-01-18T21:42:11.030Z,3.52
2018-01-18T21:44:12.511Z,3.52
2018-01-18T21:46:55.978Z,3.52
2018-01-18T21:48:57.960Z,3.42
2018-01-18T21:51:41.321Z,3.33
2018-01-18T21:53:42.706Z,3.30
2018-01-18T21:55:44.113Z,3.40
2018-01-18T21:57:45.513Z,3.46
2018-01-18T21:59:49.014Z,3.54
2018-01-18T22:01:50.470Z,3.60
2018-01-18T22:03:52.035Z,3.62
2018-01-18T22:06:35.117Z,3.71
2018-01-18T22:08:36.518Z,3.76
2018-01-18T22:10:38.866Z,3.72
2018-01-18T22:12:40.550Z,3.76
2018-01-18T22:14:42.925Z,3.92
2018-01-18T22:16:44.333Z,4.00
2018-01-18T22:18:45.826Z,4.19
2018-01-18T22:20:47.929Z,4.25
2018-01-18T22:22:49.727Z,4.39
2018-01-18T22:25:31.334Z,4.50
2018-01-18T22:27:33.314Z,4.46
2018-01-18T22:29:35.067Z,4.54
2018-01-18T22:31:36.582Z,4.46
2018-01-18T22:33:37.979Z,4.44
2018-01-18T22:35:39.412Z,4.25
2018-01-18T22:37:40.871Z,4.01
2018-01-18T22:39:42.488Z,4.00
2018-01-18T22:41:44.267Z,4.03
2018-01-18T22:43:45.706Z,3.97
2018-01-18T22:46:28.535Z,4.03
2018-01-18T22:48:29.934Z,3.97
2018-01-18T22:50:32.339Z,3.88
2018-01-18T22:52:34.183Z,3.67
2018-01-18T22:54:35.885Z,3.68
2018-01-18T22:56:37.320Z,3.58
2018-01-18T22:58:38.757Z,3.54
2018-01-18T23:00:40.859Z,3.60
2018-01-18T23:02:42.681Z,3.76
2018-01-18T23:05:25.592Z,4.06
2018-01-18T23:07:27.783Z,4.08
2018-01-18T23:09:29.102Z,4.21
2018-01-18T23:11:30.505Z,4.08
2018-01-18T23:13:31.932Z,3.86
2018-01-18T23:15:33.967Z,3.67
2018-01-18T23:17:36.123Z,3.36
2018-01-18T23:19:37.549Z,3.27
2018-01-18T23:21:39.558Z,3.34
2018-01-18T23:23:40.961Z,3.43
2018-01-18T23:26:24.087Z,3.36
2018-01-18T23:28:25.478Z,3.33
2018-01-18T23:30:28.182Z,3.30
2018-01-18T23:32:29.925Z,3.31
2018-01-18T23:34:31.931Z,3.18
2018-01-18T23:36:33.431Z,3.09
2018-01-18T23:38:34.846Z,3.02
2018-01-18T23:40:36.373Z,2.92
2018-01-18T23:42:37.864Z,3.00
2018-01-18T23:44:39.268Z,3.05
2018-01-18T23:47:21.636Z,2.95
2018-01-18T23:49:23.470Z,2.92
2018-01-18T23:51:24.917Z,3.05
2018-01-18T23:53:26.320Z,3.05
2018-01-18T23:55:28.255Z,2.91
2018-01-18T23:57:29.774Z,2.87
2018-01-18T23:59:31.485Z,2.87
